createdAt,value
2023-02-16T00:01:59.138Z,11.82
2023-02-16T00:04:31.277Z,11.78
2023-02-16T00:06:58.561Z,11.79
2023-02-16T00:09:26.007Z,11.76
2023-02-16T00:12:13.348Z,11.75
2023-02-16T00:14:40.790Z,11.70
2023-02-16T00:17:11.289Z,11.69
2023-02-16T00:19:40.638Z,11.67
2023-02-16T00:22:11.464Z,11.64
2023-02-16T00:24:41.566Z,11.64
2023-02-16T00:27:13.456Z,11.61
2023-02-16T00:29:40.434Z,11.59
2023-02-16T00:32:12.512Z,11.57
2023-02-16T00:34:43.313Z,11.55
2023-02-16T00:37:12.883Z,11.53
2023-02-16T00:39:42.642Z,11.50
2023-02-16T00:42:19.013Z,11.46
2023-02-16T00:44:49.336Z,11.41
2023-02-16T00:47:23.541Z,11.36
2023-02-16T00:49:53.336Z,11.36
2023-02-16T00:52:42.851Z,11.35
2023-02-16T00:55:15.548Z,11.34
2023-02-16T00:57:51.341Z,11.34
2023-02-16T01:00:25.371Z,11.32
2023-02-16T01:02:57.406Z,11.28
2023-02-16T01:05:25.047Z,11.26
2023-02-16T01:08:10.607Z,11.26
2023-02-16T01:10:57.417Z,11.23
2023-02-16T01:13:27.038Z,11.22
2023-02-16T01:15:55.623Z,11.18
2023-02-16T01:18:22.820Z,11.20
2023-02-16T01:21:25.788Z,11.21
2023-02-16T01:23:52.836Z,11.20
2023-02-16T01:26:20.659Z,11.18
2023-02-16T01:28:48.553Z,11.15
2023-02-16T01:31:16.798Z,11.16
2023-02-16T01:33:44.167Z,11.13
2023-02-16T01:36:22.555Z,11.14
2023-02-16T01:38:49.473Z,11.11
2023-02-16T01:41:25.185Z,11.06
2023-02-16T01:44:11.772Z,11.04
2023-02-16T01:47:07.904Z,10.99
2023-02-16T01:49:38.115Z,10.98
2023-02-16T01:52:14.336Z,10.98
2023-02-16T01:54:47.772Z,10.94
2023-02-16T01:57:14.955Z,10.88
2023-02-16T01:59:49.159Z,10.93
2023-02-16T02:02:29.054Z,10.95
2023-02-16T02:05:22.211Z,10.94
2023-02-16T02:08:02.772Z,10.93
2023-02-16T02:11:10.207Z,10.91
2023-02-16T02:13:54.693Z,10.90
2023-02-16T02:16:26.426Z,10.91
2023-02-16T02:18:53.427Z,10.90
2023-02-16T02:22:00.597Z,10.89
2023-02-16T02:24:46.938Z,10.89
2023-02-16T02:27:24.819Z,10.85
2023-02-16T02:30:06.486Z,10.81
2023-02-16T02:33:05.741Z,10.74
2023-02-16T02:35:55.393Z,10.72
2023-02-16T02:38:47.965Z,10.72
2023-02-16T02:41:57.394Z,10.71
2023-02-16T02:44:29.544Z,10.64
2023-02-16T02:46:57.084Z,10.65
2023-02-16T02:49:24.110Z,10.62
2023-02-16T02:51:51.989Z,10.61
2023-02-16T02:54:46.743Z,10.60
2023-02-16T02:57:53.574Z,10.58
2023-02-16T03:00:41.514Z,10.53
2023-02-16T03:03:30.589Z,10.50
2023-02-16T03:05:57.591Z,10.49
2023-02-16T03:08:27.354Z,10.50
2023-02-16T03:11:27.723Z,10.49
2023-02-16T03:14:00.103Z,10.48
2023-02-16T03:16:34.159Z,10.47
2023-02-16T03:19:21.142Z,10.44
2023-02-16T03:22:07.143Z,10.43
2023-02-16T03:24:53.003Z,10.39
2023-02-16T03:27:44.317Z,10.38
2023-02-16T03:30:15.038Z,10.38
2023-02-16T03:32:43.444Z,10.36
2023-02-16T03:35:12.845Z,10.33
2023-02-16T03:37:45.014Z,10.31
2023-02-16T03:40:30.332Z,10.30
2023-02-16T03:43:02.882Z,10.25
2023-02-16T03:45:31.611Z,10.24
2023-02-16T03:47:58.611Z,10.21
2023-02-16T03:50:27.486Z,10.18
2023-02-16T03:53:07.931Z,10.18
2023-02-16T03:55:44.153Z,10.17
2023-02-16T03:58:19.879Z,10.14
2023-02-16T04:00:47.459Z,10.13
2023-02-16T04:03:15.018Z,10.11
2023-02-16T04:05:42.236Z,10.10
2023-02-16T04:08:10.170Z,10.07
2023-02-16T04:10:38.642Z,10.06
2023-02-16T04:13:05.604Z,10.03
2023-02-16T04:15:33.191Z,9.99
2023-02-16T04:18:00.267Z,9.97
2023-02-16T04:20:32.051Z,9.95
2023-02-16T04:22:59.056Z,9.96
2023-02-16T04:25:26.012Z,9.95
2023-02-16T04:27:53.896Z,9.94
2023-02-16T04:30:23.900Z,9.89
2023-02-16T04:32:50.960Z,9.83
2023-02-16T04:35:18.604Z,9.82
2023-02-16T04:37:45.598Z,9.79
2023-02-16T04:40:14.123Z,9.81
2023-02-16T04:42:42.069Z,9.76
2023-02-16T04:45:10.171Z,9.76
2023-02-16T04:47:37.648Z,9.74
2023-02-16T04:50:05.479Z,9.74
2023-02-16T04:52:32.544Z,9.72
2023-02-16T04:54:59.617Z,9.71
2023-02-16T04:57:26.527Z,9.72
2023-02-16T04:59:53.534Z,9.73
2023-02-16T05:02:20.408Z,9.72
2023-02-16T05:04:47.936Z,9.70
2023-02-16T05:07:14.824Z,9.68
2023-02-16T05:09:41.865Z,9.68
2023-02-16T05:12:28.729Z,9.66
2023-02-16T05:14:55.694Z,9.55
2023-02-16T05:17:26.679Z,9.55
2023-02-16T05:19:59.371Z,9.53
2023-02-16T05:22:28.744Z,9.53
2023-02-16T05:24:55.722Z,9.54
2023-02-16T05:27:25.650Z,9.53
2023-02-16T05:29:52.695Z,9.48
2023-02-16T05:32:20.579Z,9.49
2023-02-16T05:34:48.109Z,9.48
2023-02-16T05:37:17.748Z,9.48
2023-02-16T05:39:45.275Z,9.45
2023-02-16T05:42:12.237Z,9.46
2023-02-16T05:44:39.440Z,9.42
2023-02-16T05:47:06.396Z,9.40
2023-02-16T05:49:33.261Z,9.39
2023-02-16T05:52:00.207Z,9.39
2023-02-16T05:54:28.107Z,9.36
2023-02-16T05:56:55.090Z,9.37
2023-02-16T05:59:22.692Z,9.36
2023-02-16T06:01:51.969Z,9.34
2023-02-16T06:04:20.364Z,9.33
2023-02-16T06:06:47.901Z,9.33
2023-02-16T06:09:15.306Z,9.31
2023-02-16T06:11:42.879Z,9.29
2023-02-16T06:14:13.169Z,9.29
2023-02-16T06:16:42.732Z,9.30
2023-02-16T06:19:09.796Z,9.27
2023-02-16T06:21:37.651Z,9.24
2023-02-16T06:24:05.217Z,9.23
2023-02-16T06:26:32.451Z,9.25
2023-02-16T06:28:59.463Z,9.22
2023-02-16T06:31:27.045Z,9.23
2023-02-16T06:33:56.861Z,9.25
2023-02-16T06:36:24.820Z,9.24
2023-02-16T06:38:52.231Z,9.19
2023-02-16T06:41:39.850Z,9.21
2023-02-16T06:44:12.524Z,9.21
2023-02-16T06:46:40.960Z,9.22
2023-02-16T06:49:08.450Z,9.22
2023-02-16T06:51:35.419Z,9.20
2023-02-16T06:54:02.359Z,9.23
2023-02-16T06:56:29.377Z,9.23
2023-02-16T06:58:56.346Z,9.27
2023-02-16T07:01:25.978Z,9.28
2023-02-16T07:03:55.457Z,9.31
2023-02-16T07:06:24.723Z,9.33
2023-02-16T07:08:52.265Z,9.38
2023-02-16T07:11:20.335Z,9.42
2023-02-16T07:13:50.205Z,9.49
2023-02-16T07:16:17.159Z,9.55
2023-02-16T07:18:47.686Z,9.64
2023-02-16T07:21:15.015Z,9.70
2023-02-16T07:23:41.980Z,9.78
2023-02-16T07:26:09.692Z,9.87
2023-02-16T07:28:36.668Z,9.93
2023-02-16T07:31:09.212Z,10.05
2023-02-16T07:33:36.902Z,10.18
2023-02-16T07:36:04.481Z,10.33
2023-02-16T07:38:31.573Z,10.49
2023-02-16T07:40:59.176Z,10.71
2023-02-16T07:43:26.361Z,10.93
2023-02-16T07:45:53.684Z,11.20
2023-02-16T07:48:20.970Z,11.45
2023-02-16T07:50:47.921Z,11.78
2023-02-16T07:53:14.947Z,12.12
2023-02-16T07:55:43.691Z,12.64
2023-02-16T07:58:10.901Z,13.13
2023-02-16T08:00:38.133Z,13.66
2023-02-16T08:03:05.411Z,14.26
2023-02-16T08:05:34.517Z,14.74
2023-02-16T08:08:01.446Z,15.17
2023-02-16T08:10:28.605Z,15.57
2023-02-16T08:12:55.521Z,15.86
2023-02-16T08:15:24.025Z,15.95
2023-02-16T08:17:51.189Z,16.14
2023-02-16T08:20:18.238Z,16.23
2023-02-16T08:22:45.336Z,16.37
2023-02-16T08:25:12.280Z,16.52
2023-02-16T08:27:41.611Z,16.75
2023-02-16T08:30:12.976Z,16.97
2023-02-16T08:32:40.843Z,17.41
2023-02-16T08:35:08.930Z,17.83
2023-02-16T08:37:38.961Z,18.30
2023-02-16T08:40:09.101Z,18.80
2023-02-16T08:42:37.154Z,19.59
2023-02-16T08:45:06.720Z,20.43
2023-02-16T08:47:34.960Z,21.23
2023-02-16T08:50:01.865Z,22.02
2023-02-16T08:52:29.168Z,22.90
2023-02-16T08:54:56.135Z,23.58
2023-02-16T08:57:23.084Z,23.69
2023-02-16T09:00:10.177Z,23.45
2023-02-16T09:02:37.596Z,22.53
2023-02-16T09:05:04.709Z,21.72
2023-02-16T09:07:35.195Z,20.82
2023-02-16T09:10:03.201Z,20.13
2023-02-16T09:12:31.121Z,19.46
2023-02-16T09:15:01.807Z,18.94
2023-02-16T09:17:29.272Z,18.52
2023-02-16T09:19:56.703Z,18.11
2023-02-16T09:22:23.785Z,17.72
2023-02-16T09:24:50.977Z,17.49
2023-02-16T09:27:18.522Z,17.13
2023-02-16T09:29:45.656Z,16.88
2023-02-16T09:32:15.557Z,16.69
2023-02-16T09:34:44.722Z,16.50
2023-02-16T09:37:11.668Z,16.39
2023-02-16T09:39:38.598Z,16.23
2023-02-16T09:42:20.822Z,16.17
2023-02-16T09:44:53.538Z,16.01
2023-02-16T09:47:31.527Z,15.95
2023-02-16T09:50:06.584Z,15.82
2023-02-16T09:52:44.605Z,15.77
2023-02-16T09:55:15.442Z,15.60
2023-02-16T09:57:55.765Z,15.59
2023-02-16T10:00:34.659Z,15.54
2023-02-16T10:03:01.635Z,15.53
2023-02-16T10:05:53.460Z,15.57
2023-02-16T10:08:31.588Z,15.49
2023-02-16T10:11:30.821Z,15.45
2023-02-16T10:14:03.069Z,15.38
2023-02-16T10:16:41.466Z,15.38
2023-02-16T10:19:36.130Z,15.40
2023-02-16T10:22:08.711Z,15.34
2023-02-16T10:24:47.073Z,15.32
2023-02-16T10:27:16.576Z,15.31
2023-02-16T10:29:43.714Z,15.30
2023-02-16T10:32:30.692Z,15.35
2023-02-16T10:35:22.593Z,15.36
2023-02-16T10:38:04.315Z,15.34
2023-02-16T10:41:03.744Z,15.33
2023-02-16T10:43:58.746Z,15.35
2023-02-16T10:46:31.206Z,15.35
2023-02-16T10:49:02.220Z,15.38
2023-02-16T10:51:37.416Z,15.33
2023-02-16T10:54:15.218Z,15.36
2023-02-16T10:56:52.577Z,15.35
2023-02-16T10:59:23.600Z,15.36
2023-02-16T11:01:57.660Z,15.43
2023-02-16T11:04:41.561Z,15.43
2023-02-16T11:07:23.439Z,15.23
2023-02-16T11:09:55.683Z,15.32
2023-02-16T11:12:28.527Z,15.33
2023-02-16T11:15:01.288Z,15.39
2023-02-16T11:17:28.336Z,15.38
2023-02-16T11:20:01.961Z,15.32
2023-02-16T11:22:38.256Z,15.30
2023-02-16T11:25:23.913Z,15.30
2023-02-16T11:28:02.170Z,15.22
2023-02-16T11:30:32.533Z,15.24
2023-02-16T11:33:05.710Z,15.24
2023-02-16T11:35:41.144Z,15.29
2023-02-16T11:38:26.931Z,15.32
2023-02-16T11:40:55.847Z,15.38
2023-02-16T11:43:28.657Z,15.36
2023-02-16T11:46:20.135Z,15.39
2023-02-16T11:48:47.923Z,15.41
2023-02-16T11:51:16.104Z,15.48
2023-02-16T11:53:44.507Z,15.56
2023-02-16T11:56:13.440Z,15.56
2023-02-16T11:58:41.007Z,15.60
2023-02-16T12:01:35.973Z,15.65
2023-02-16T12:04:22.422Z,15.53
2023-02-16T12:07:17.988Z,15.45
2023-02-16T12:10:10.857Z,15.52
2023-02-16T12:13:10.345Z,15.53
2023-02-16T12:15:47.055Z,15.44
2023-02-16T12:18:17.291Z,15.48
2023-02-16T12:21:07.003Z,15.57
2023-02-16T12:23:42.608Z,15.63
2023-02-16T12:26:10.050Z,15.70
2023-02-16T12:29:11.792Z,15.81
2023-02-16T12:32:16.254Z,15.82
2023-02-16T12:35:01.761Z,15.85
2023-02-16T12:37:37.948Z,15.87
2023-02-16T12:40:10.940Z,15.94
2023-02-16T12:43:12.745Z,16.01
2023-02-16T12:45:44.588Z,16.01
2023-02-16T12:48:11.408Z,15.94
2023-02-16T12:50:45.140Z,15.97
2023-02-16T12:53:22.546Z,15.83
2023-02-16T12:56:03.575Z,15.80
2023-02-16T12:58:35.337Z,15.87
2023-02-16T13:01:14.724Z,15.94
2023-02-16T13:04:02.229Z,16.01
2023-02-16T13:06:56.644Z,15.99
2023-02-16T13:09:41.698Z,15.98
2023-02-16T13:12:34.486Z,16.01
2023-02-16T13:15:30.847Z,16.11
2023-02-16T13:18:03.458Z,16.22
2023-02-16T13:20:30.677Z,16.31
2023-02-16T13:23:19.005Z,16.44
2023-02-16T13:26:05.628Z,16.51
2023-02-16T13:28:47.248Z,16.58
2023-02-16T13:31:29.477Z,16.47
2023-02-16T13:34:05.738Z,16.09
2023-02-16T13:36:47.831Z,15.87
2023-02-16T13:39:31.739Z,15.90
2023-02-16T13:42:20.408Z,16.04
2023-02-16T13:44:54.696Z,16.20
2023-02-16T13:47:42.207Z,16.10
2023-02-16T13:50:32.560Z,16.09
2023-02-16T13:53:16.729Z,16.16
2023-02-16T13:55:44.185Z,16.05
2023-02-16T13:58:14.198Z,16.05
2023-02-16T14:00:47.929Z,16.08
2023-02-16T14:03:17.731Z,15.81
2023-02-16T14:05:48.058Z,15.89
2023-02-16T14:08:22.507Z,16.03
2023-02-16T14:10:55.475Z,15.82
2023-02-16T14:13:39.511Z,15.82
2023-02-16T14:16:07.035Z,15.65
2023-02-16T14:18:45.216Z,15.47
2023-02-16T14:21:44.182Z,15.44
2023-02-16T14:24:24.592Z,15.47
2023-02-16T14:27:01.780Z,15.26
2023-02-16T14:30:01.691Z,15.30
2023-02-16T14:32:38.765Z,15.25
2023-02-16T14:35:05.617Z,15.16
2023-02-16T14:37:51.516Z,15.22
2023-02-16T14:40:22.656Z,15.22
2023-02-16T14:42:55.311Z,15.15
2023-02-16T14:45:41.094Z,15.08
2023-02-16T14:48:26.937Z,15.18
2023-02-16T14:51:31.308Z,15.09
2023-02-16T14:54:27.386Z,15.09
2023-02-16T14:57:02.370Z,15.17
2023-02-16T14:59:47.886Z,15.16
2023-02-16T15:02:31.510Z,15.20
2023-02-16T15:04:58.944Z,15.15
2023-02-16T15:07:28.868Z,15.13
2023-02-16T15:09:58.444Z,14.96
2023-02-16T15:12:40.675Z,15.01
2023-02-16T15:15:13.563Z,14.97
2023-02-16T15:17:50.427Z,15.07
2023-02-16T15:20:25.026Z,15.01
2023-02-16T15:23:03.858Z,14.95
2023-02-16T15:25:40.851Z,14.81
2023-02-16T15:28:10.828Z,14.87
2023-02-16T15:30:41.957Z,14.80
2023-02-16T15:33:24.206Z,14.87
2023-02-16T15:35:55.758Z,14.98
2023-02-16T15:38:25.760Z,15.01
2023-02-16T15:40:57.211Z,14.94
2023-02-16T15:43:36.000Z,14.95
2023-02-16T15:46:05.020Z,14.99
2023-02-16T15:48:34.186Z,15.10
2023-02-16T15:51:02.411Z,14.90
2023-02-16T15:53:35.409Z,14.81
2023-02-16T15:56:31.320Z,14.85
2023-02-16T15:59:01.716Z,14.81
2023-02-16T16:01:37.897Z,14.80
2023-02-16T16:04:26.779Z,14.79
2023-02-16T16:06:54.371Z,14.63
2023-02-16T16:09:29.855Z,14.71
2023-02-16T16:12:00.007Z,14.68
2023-02-16T16:14:27.939Z,14.64
2023-02-16T16:16:55.944Z,14.61
2023-02-16T16:19:42.800Z,14.63
2023-02-16T16:22:33.071Z,14.72
2023-02-16T16:25:00.590Z,14.63
2023-02-16T16:27:38.720Z,14.61
2023-02-16T16:30:20.779Z,14.66
2023-02-16T16:32:48.010Z,14.70
2023-02-16T16:35:40.784Z,14.81
2023-02-16T16:38:22.410Z,14.75
2023-02-16T16:40:53.195Z,14.73
2023-02-16T16:43:23.087Z,14.74
2023-02-16T16:45:57.860Z,14.73
2023-02-16T16:48:34.720Z,14.72
2023-02-16T16:51:31.796Z,14.67
2023-02-16T16:54:04.296Z,14.68
2023-02-16T16:56:38.247Z,14.51
2023-02-16T16:59:06.052Z,14.50
2023-02-16T17:01:33.092Z,14.33
2023-02-16T17:04:10.361Z,14.28
2023-02-16T17:06:37.279Z,14.29
2023-02-16T17:09:11.163Z,14.26
2023-02-16T17:11:39.071Z,14.23
2023-02-16T17:14:26.431Z,14.20
2023-02-16T17:16:56.469Z,14.02
2023-02-16T17:19:23.578Z,14.05
2023-02-16T17:21:50.637Z,14.04
2023-02-16T17:24:17.810Z,14.08
2023-02-16T17:26:44.784Z,14.06
2023-02-16T17:29:12.135Z,14.06
2023-02-16T17:31:39.367Z,14.06
2023-02-16T17:34:06.473Z,14.03
2023-02-16T17:36:34.494Z,14.03
2023-02-16T17:39:02.078Z,14.01
2023-02-16T17:41:30.044Z,13.90
2023-02-16T17:43:56.941Z,13.87
2023-02-16T17:46:25.000Z,13.85
2023-02-16T17:48:55.184Z,13.81
2023-02-16T17:51:24.903Z,13.69
2023-02-16T17:53:52.769Z,13.59
2023-02-16T17:56:22.444Z,13.54
2023-02-16T17:58:49.846Z,13.57
2023-02-16T18:01:19.270Z,13.61
2023-02-16T18:03:46.261Z,13.49
2023-02-16T18:06:25.496Z,13.51
2023-02-16T18:08:57.014Z,13.46
2023-02-16T18:11:24.994Z,13.34
2023-02-16T18:13:52.040Z,13.23
2023-02-16T18:16:21.878Z,13.24
2023-02-16T18:18:49.209Z,13.17
2023-02-16T18:21:16.381Z,13.15
2023-02-16T18:23:43.869Z,13.09
2023-02-16T18:26:15.144Z,13.14
2023-02-16T18:28:42.504Z,13.13
2023-02-16T18:31:10.501Z,13.17
2023-02-16T18:33:37.622Z,13.18
2023-02-16T18:36:05.243Z,13.16
2023-02-16T18:38:32.485Z,13.08
2023-02-16T18:40:59.716Z,13.10
2023-02-16T18:43:26.704Z,13.11
2023-02-16T18:45:53.684Z,13.09
2023-02-16T18:48:22.138Z,13.08
2023-02-16T18:50:49.365Z,13.15
2023-02-16T18:53:16.345Z,13.17
2023-02-16T18:55:43.301Z,13.16
2023-02-16T18:58:13.107Z,13.21
2023-02-16T19:00:41.559Z,13.20
2023-02-16T19:03:09.061Z,13.19
2023-02-16T19:05:36.106Z,13.09
2023-02-16T19:08:03.120Z,13.13
2023-02-16T19:10:30.358Z,13.12
2023-02-16T19:12:57.288Z,13.13
2023-02-16T19:15:24.304Z,13.16
2023-02-16T19:17:52.252Z,13.16
2023-02-16T19:20:19.453Z,13.15
2023-02-16T19:22:48.291Z,13.17
2023-02-16T19:25:15.346Z,13.19
2023-02-16T19:27:42.784Z,13.19
2023-02-16T19:30:10.305Z,13.20
2023-02-16T19:32:41.036Z,13.19
2023-02-16T19:35:11.934Z,13.19
2023-02-16T19:37:39.114Z,13.15
2023-02-16T19:40:08.713Z,13.14
2023-02-16T19:42:38.333Z,13.16
2023-02-16T19:45:06.279Z,13.14
2023-02-16T19:47:33.288Z,13.12
2023-02-16T19:50:00.588Z,13.07
2023-02-16T19:52:27.582Z,13.03
2023-02-16T19:54:54.496Z,13.00
2023-02-16T19:57:21.646Z,12.98
2023-02-16T19:59:48.534Z,12.85
2023-02-16T20:02:15.718Z,12.76
2023-02-16T20:04:44.420Z,12.76
2023-02-16T20:07:11.607Z,12.75
2023-02-16T20:09:39.260Z,12.72
2023-02-16T20:12:06.775Z,12.69
2023-02-16T20:14:33.816Z,12.65
2023-02-16T20:17:04.002Z,12.60
2023-02-16T20:19:30.935Z,12.58
2023-02-16T20:21:57.836Z,12.54
2023-02-16T20:24:24.847Z,12.48
2023-02-16T20:26:52.307Z,12.41
2023-02-16T20:29:21.105Z,12.39
2023-02-16T20:31:54.873Z,12.38
2023-02-16T20:34:23.254Z,12.34
2023-02-16T20:36:50.414Z,12.32
2023-02-16T20:39:18.907Z,12.30
2023-02-16T20:41:46.367Z,12.26
2023-02-16T20:44:13.559Z,12.25
2023-02-16T20:46:41.278Z,12.21
2023-02-16T20:49:09.450Z,12.18
2023-02-16T20:51:37.366Z,12.16
2023-02-16T20:54:05.325Z,12.11
2023-02-16T20:56:32.456Z,12.08
2023-02-16T20:59:00.477Z,12.03
2023-02-16T21:01:34.442Z,11.99
2023-02-16T21:04:01.572Z,11.95
2023-02-16T21:06:28.850Z,11.89
2023-02-16T21:08:56.619Z,11.88
2023-02-16T21:11:24.260Z,11.85
2023-02-16T21:13:51.316Z,11.78
2023-02-16T21:16:18.509Z,11.74
2023-02-16T21:18:45.511Z,11.71
2023-02-16T21:21:15.769Z,11.63
2023-02-16T21:23:48.171Z,11.62
2023-02-16T21:26:16.174Z,11.58
2023-02-16T21:28:43.112Z,11.57
2023-02-16T21:31:13.286Z,11.56
2023-02-16T21:33:40.971Z,11.53
2023-02-16T21:36:14.920Z,11.51
2023-02-16T21:38:42.165Z,11.47
2023-02-16T21:41:25.496Z,11.43
2023-02-16T21:43:54.060Z,11.39
2023-02-16T21:46:21.898Z,11.37
2023-02-16T21:48:50.236Z,11.31
2023-02-16T21:51:24.375Z,11.27
2023-02-16T21:53:51.515Z,11.25
2023-02-16T21:56:34.360Z,11.23
2023-02-16T21:59:02.066Z,11.17
2023-02-16T22:01:32.250Z,11.13
2023-02-16T22:04:00.813Z,11.08
2023-02-16T22:06:32.320Z,11.08
2023-02-16T22:09:00.177Z,11.04
2023-02-16T22:11:27.429Z,11.01
2023-02-16T22:13:56.078Z,11.00
2023-02-16T22:16:24.191Z,10.97
2023-02-16T22:19:05.014Z,10.95
2023-02-16T22:21:37.467Z,10.90
2023-02-16T22:24:05.400Z,10.87
2023-02-16T22:26:34.032Z,10.87
2023-02-16T22:29:03.984Z,10.84
2023-02-16T22:31:30.973Z,10.83
2023-02-16T22:34:01.159Z,10.80
2023-02-16T22:36:28.631Z,10.77
2023-02-16T22:38:55.925Z,10.74
2023-02-16T22:41:24.193Z,10.71
2023-02-16T22:43:59.814Z,10.68
2023-02-16T22:46:28.723Z,10.63
2023-02-16T22:48:58.639Z,10.58
2023-02-16T22:51:28.649Z,10.53
2023-02-16T22:53:57.749Z,10.52
2023-02-16T22:56:26.947Z,10.49
2023-02-16T22:58:57.331Z,10.49
2023-02-16T23:01:24.936Z,10.47
2023-02-16T23:03:54.548Z,10.41
2023-02-16T23:06:23.987Z,10.40
2023-02-16T23:09:00.681Z,10.35
2023-02-16T23:11:28.799Z,10.34
2023-02-16T23:13:56.174Z,10.32
2023-02-16T23:16:25.167Z,10.29
2023-02-16T23:18:52.520Z,10.29
2023-02-16T23:21:22.284Z,10.26
2023-02-16T23:23:50.784Z,10.24
2023-02-16T23:26:19.196Z,10.20
2023-02-16T23:28:50.998Z,10.18
2023-02-16T23:31:18.773Z,10.19
2023-02-16T23:33:45.926Z,10.17
2023-02-16T23:36:12.902Z,10.16
2023-02-16T23:38:40.067Z,10.17
2023-02-16T23:41:12.963Z,10.15
2023-02-16T23:43:39.969Z,10.11
2023-02-16T23:46:07.582Z,10.11
2023-02-16T23:48:34.816Z,10.06
2023-02-16T23:51:01.782Z,10.04
2023-02-16T23:53:29.198Z,10.01
2023-02-16T23:56:08.138Z,9.97
2023-02-16T23:58:42.926Z,9.97
